Time;durP1;ratioP1;P1;durP2;ratioP2;P2;SDS_P1;SDS_P2;PMS_P1;PMS_P2;Temp;Humidity;BMP_temperature;BMP_pressure;BME280_temperature;BME280_humidity;BME280_pressure;Samples;Min_cycle;Max_cycle;Signal;HPM_P1;HPM_P2
2024/01/23 00:01:06;;;;;;;7.37;2.73;;;8.00;99.90;;;;;;4989032;28;20865;-61
2024/01/23 00:03:34;;;;;;;6.17;2.50;;;8.00;99.90;;;;;;4984524;28;20468;-61
2024/01/23 00:06:02;;;;;;;9.80;2.43;;;8.00;99.90;;;;;;4996762;28;20887;-60
2024/01/23 00:08:31;;;;;;;8.03;3.40;;;8.00;99.90;;;;;;4996236;28;20477;-59
2024/01/23 00:11:03;;;;;;;6.63;2.43;;;8.00;99.90;;;;;;4993561;28;20488;-60
2024/01/23 00:13:33;;;;;;;9.00;2.93;;;7.90;99.90;;;;;;4992424;28;21008;-61
2024/01/23 00:16:01;;;;;;;7.27;2.40;;;8.00;99.90;;;;;;4993084;28;20581;-60
2024/01/23 00:18:28;;;;;;;6.93;2.30;;;7.90;99.90;;;;;;4989717;28;20555;-61
2024/01/23 00:20:57;;;;;;;7.50;2.57;;;8.00;99.90;;;;;;4995325;28;20508;-61
2024/01/23 00:23:25;;;;;;;7.13;2.43;;;8.00;99.90;;;;;;4989631;28;20473;-61
2024/01/23 00:25:54;;;;;;;8.37;2.83;;;8.00;99.90;;;;;;4994535;28;20980;-59
2024/01/23 00:28:23;;;;;;;8.90;2.70;;;8.00;99.90;;;;;;4992570;28;21083;-61
2024/01/23 00:30:53;;;;;;;9.70;2.53;;;7.90;99.90;;;;;;4994485;28;20472;-60
2024/01/23 00:33:21;;;;;;;10.53;3.50;;;7.90;99.90;;;;;;4990434;28;20570;-60
2024/01/23 00:35:49;;;;;;;10.10;2.67;;;8.00;99.90;;;;;;4994563;28;20964;-62
2024/01/23 00:38:17;;;;;;;7.80;2.60;;;7.90;99.90;;;;;;4992151;28;20535;-61
2024/01/23 00:40:45;;;;;;;10.77;3.70;;;7.90;99.90;;;;;;4996701;28;20495;-59
2024/01/23 00:43:14;;;;;;;11.07;3.20;;;7.90;99.90;;;;;;4999895;28;20563;-61
2024/01/23 00:45:42;;;;;;;8.20;3.60;;;7.90;99.90;;;;;;4998216;28;20546;-61
2024/01/23 00:48:11;;;;;;;7.60;2.43;;;7.90;99.90;;;;;;4993360;28;20479;-60
2024/01/23 00:50:40;;;;;;;6.77;3.00;;;7.90;99.90;;;;;;4993988;28;20504;-61
2024/01/23 00:53:07;;;;;;;14.47;2.87;;;7.90;99.90;;;;;;4994546;28;20479;-60
2024/01/23 00:55:35;;;;;;;9.13;2.97;;;7.80;99.90;;;;;;4997607;28;20461;-61
2024/01/23 00:58:04;;;;;;;7.30;3.00;;;7.80;99.90;;;;;;4998653;28;20567;-61
2024/01/23 01:00:32;;;;;;;7.00;2.53;;;7.80;99.90;;;;;;5001304;28;21040;-61
2024/01/23 01:03:00;;;;;;;6.87;2.37;;;7.80;99.90;;;;;;5000240;28;20472;-61
2024/01/23 01:05:29;;;;;;;5.67;1.83;;;7.80;99.90;;;;;;5000134;28;21087;-61
2024/01/23 01:07:58;;;;;;;6.47;2.00;;;7.70;99.90;;;;;;4999554;28;21051;-61
2024/01/23 01:10:26;;;;;;;4.80;2.07;;;7.60;99.90;;;;;;4997993;28;20571;-61
2024/01/23 01:12:54;;;;;;;3.83;1.87;;;7.40;99.90;;;;;;4997803;28;20534;-59
2024/01/23 01:15:22;;;;;;;8.13;1.93;;;7.40;99.90;;;;;;4997965;28;20857;-60
2024/01/23 01:17:50;;;;;;;7.73;1.90;;;7.30;99.90;;;;;;4998183;28;20471;-60
2024/01/23 01:20:18;;;;;;;5.30;1.67;;;7.20;99.90;;;;;;4999451;28;20534;-61
2024/01/23 01:22:47;;;;;;;3.77;1.47;;;7.10;99.90;;;;;;4998704;28;20551;-61
2024/01/23 01:25:15;;;;;;;4.63;1.73;;;7.00;99.90;;;;;;4997615;28;20464;-60
2024/01/23 01:27:43;;;;;;;3.50;1.40;;;7.00;99.90;;;;;;5000678;28;20473;-61
2024/01/23 01:30:12;;;;;;;9.47;1.67;;;6.90;99.90;;;;;;4996823;28;20479;-59
2024/01/23 01:32:40;;;;;;;5.20;1.53;;;6.90;99.90;;;;;;4999521;28;20570;-61
2024/01/23 01:35:09;;;;;;;5.10;1.30;;;6.80;99.90;;;;;;4998322;28;20864;-61
2024/01/23 01:37:37;;;;;;;5.13;1.97;;;6.80;99.90;;;;;;5000355;28;20578;-61
2024/01/23 01:40:07;;;;;;;6.50;2.00;;;6.70;99.90;;;;;;4999872;28;21102;-60
2024/01/23 01:42:35;;;;;;;5.27;1.87;;;6.70;99.90;;;;;;4997755;28;20483;-60
2024/01/23 01:45:06;;;;;;;4.83;2.07;;;6.70;99.90;;;;;;4997111;28;20518;-61
2024/01/23 01:47:34;;;;;;;6.70;2.00;;;6.70;99.90;;;;;;4996690;28;20554;-61
2024/01/23 01:50:03;;;;;;;6.80;2.00;;;6.70;99.90;;;;;;4993195;28;20507;-61
2024/01/23 01:52:32;;;;;;;12.40;2.40;;;6.60;99.90;;;;;;4996308;28;20562;-61
2024/01/23 01:55:01;;;;;;;6.60;2.37;;;6.70;99.90;;;;;;5000492;28;20550;-60
2024/01/23 01:57:33;;;;;;;9.20;2.50;;;6.70;99.90;;;;;;4995885;28;20476;-61
2024/01/23 02:00:02;;;;;;;5.83;2.20;;;6.70;99.90;;;;;;4995410;28;21135;-61
2024/01/23 02:02:30;;;;;;;9.20;2.80;;;6.70;99.90;;;;;;4993016;28;20525;-60
2024/01/23 02:04:59;;;;;;;5.20;1.97;;;6.70;99.90;;;;;;4989660;28;20474;-61
2024/01/23 02:07:27;;;;;;;4.57;1.97;;;6.80;99.90;;;;;;4996140;28;21159;-61
2024/01/23 02:09:55;;;;;;;5.00;2.40;;;6.70;99.90;;;;;;4994722;28;20571;-61
2024/01/23 02:12:23;;;;;;;5.27;2.47;;;6.80;99.90;;;;;;4999329;28;20562;-61
2024/01/23 02:14:53;;;;;;;5.27;2.53;;;6.80;99.90;;;;;;4999379;28;21020;-61
2024/01/23 02:17:21;;;;;;;5.90;1.77;;;6.80;99.90;;;;;;4994420;28;20500;-60
2024/01/23 02:19:50;;;;;;;6.20;2.33;;;6.80;99.90;;;;;;4986146;28;21157;-61
2024/01/23 02:22:19;;;;;;;6.07;2.57;;;6.80;99.90;;;;;;4993261;28;20529;-60
2024/01/23 02:24:48;;;;;;;7.47;2.10;;;6.80;99.90;;;;;;4997260;28;20551;-60
2024/01/23 02:27:16;;;;;;;6.50;2.50;;;6.70;99.90;;;;;;4996243;28;20887;-59
2024/01/23 02:29:44;;;;;;;7.77;2.50;;;6.70;99.90;;;;;;4998763;28;20488;-60
2024/01/23 02:32:12;;;;;;;7.07;2.60;;;6.70;99.90;;;;;;4998795;28;20519;-61
2024/01/23 02:34:40;;;;;;;8.13;2.13;;;6.70;99.90;;;;;;4995288;28;20474;-60
2024/01/23 02:37:08;;;;;;;7.10;1.90;;;6.70;99.90;;;;;;4995633;28;20615;-60
2024/01/23 02:39:36;;;;;;;10.37;2.57;;;6.70;99.90;;;;;;4997090;28;20944;-61
2024/01/23 02:42:09;;;;;;;8.23;2.73;;;6.80;99.90;;;;;;4997538;28;20500;-61
2024/01/23 02:44:37;;;;;;;8.97;2.17;;;6.80;99.90;;;;;;4997056;28;20514;-60
2024/01/23 02:47:06;;;;;;;9.93;2.93;;;6.80;99.90;;;;;;4995714;28;20492;-60
2024/01/23 02:49:34;;;;;;;8.20;2.57;;;6.80;99.90;;;;;;4989033;28;20479;-61
2024/01/23 02:52:03;;;;;;;5.80;2.40;;;6.80;99.90;;;;;;4988257;28;20573;-59
2024/01/23 02:54:32;;;;;;;5.83;2.43;;;6.70;99.90;;;;;;4993846;28;21053;-61
2024/01/23 02:57:00;;;;;;;7.93;2.90;;;6.70;99.90;;;;;;4998185;28;20472;-61
2024/01/23 02:59:29;;;;;;;8.57;2.90;;;6.70;99.90;;;;;;4995977;28;20479;-61
2024/01/23 03:01:57;;;;;;;9.33;2.40;;;6.60;99.90;;;;;;4994841;28;20591;-61
2024/01/23 03:04:25;;;;;;;11.53;2.67;;;6.60;99.90;;;;;;4996095;28;20623;-61
2024/01/23 03:06:53;;;;;;;8.37;2.80;;;6.60;99.90;;;;;;4995939;28;20985;-61
2024/01/23 03:09:21;;;;;;;7.50;2.10;;;6.60;99.90;;;;;;4995714;28;21832;-60
2024/01/23 03:11:49;;;;;;;10.40;2.50;;;6.60;99.90;;;;;;4995686;28;20504;-61
2024/01/23 03:14:17;;;;;;;7.53;2.53;;;6.60;99.90;;;;;;4998944;28;20552;-61
2024/01/23 03:16:46;;;;;;;7.27;2.30;;;6.60;99.90;;;;;;4993755;28;20484;-60
2024/01/23 03:19:15;;;;;;;6.70;2.10;;;6.60;99.90;;;;;;4994594;28;20495;-60
2024/01/23 03:21:43;;;;;;;8.73;2.23;;;6.60;99.90;;;;;;4993442;28;21073;-60
2024/01/23 03:24:11;;;;;;;8.77;2.60;;;6.60;99.90;;;;;;4993867;28;21740;-60
2024/01/23 03:26:39;;;;;;;6.83;2.93;;;6.60;99.90;;;;;;4996780;28;20468;-61
2024/01/23 03:29:09;;;;;;;9.30;2.53;;;6.60;99.90;;;;;;4995463;28;20563;-61
2024/01/23 03:31:37;;;;;;;9.90;3.90;;;6.60;99.90;;;;;;4994310;28;20868;-61
2024/01/23 03:34:07;;;;;;;7.87;2.30;;;6.60;99.90;;;;;;4994010;28;20475;-59
2024/01/23 03:36:35;;;;;;;6.67;2.27;;;6.60;99.90;;;;;;4998311;28;20482;-61
2024/01/23 03:39:03;;;;;;;7.07;2.57;;;6.70;99.90;;;;;;4994993;28;20472;-61
2024/01/23 03:41:31;;;;;;;11.63;3.10;;;6.70;99.90;;;;;;4994412;28;20480;-61
2024/01/23 03:43:59;;;;;;;10.43;3.43;;;6.70;99.90;;;;;;4998485;28;20667;-60
2024/01/23 03:46:28;;;;;;;10.93;2.73;;;6.70;99.90;;;;;;4992973;28;21000;-60
2024/01/23 03:48:55;;;;;;;10.60;2.50;;;6.70;99.90;;;;;;4993162;28;20575;-61
2024/01/23 03:51:25;;;;;;;15.90;3.40;;;6.70;99.90;;;;;;4993651;28;20503;-61
2024/01/23 03:53:53;;;;;;;7.03;2.63;;;6.80;99.90;;;;;;4995272;28;20893;-60
2024/01/23 03:56:22;;;;;;;10.20;3.20;;;6.80;99.90;;;;;;4995808;28;20476;-61
2024/01/23 03:58:50;;;;;;;12.53;3.00;;;6.80;99.90;;;;;;4991401;28;20564;-60
2024/01/23 04:01:18;;;;;;;17.03;3.53;;;6.80;99.90;;;;;;4996775;28;20567;-60
2024/01/23 04:03:46;;;;;;;10.10;2.87;;;6.80;99.90;;;;;;4995449;28;20862;-60
2024/01/23 04:06:14;;;;;;;10.03;2.70;;;6.80;99.90;;;;;;4990081;28;20568;-61
2024/01/23 04:08:44;;;;;;;10.97;2.73;;;6.80;99.90;;;;;;4991328;28;20483;-61
2024/01/23 04:11:12;;;;;;;11.37;3.17;;;6.80;99.90;;;;;;4990526;28;20575;-61
2024/01/23 04:13:40;;;;;;;9.90;2.87;;;6.80;99.90;;;;;;4994538;28;20576;-60
2024/01/23 04:16:08;;;;;;;10.80;2.60;;;6.80;99.90;;;;;;4999168;28;21113;-60
2024/01/23 04:18:36;;;;;;;14.20;3.00;;;6.80;99.90;;;;;;4994059;28;20468;-60
2024/01/23 04:21:08;;;;;;;9.93;2.83;;;6.80;99.90;;;;;;4991330;28;20495;-61
2024/01/23 04:23:35;;;;;;;8.93;2.77;;;6.80;99.90;;;;;;4998204;28;20472;-61
2024/01/23 04:26:07;;;;;;;9.90;2.70;;;6.80;99.90;;;;;;4998207;28;20862;-61
2024/01/23 04:28:36;;;;;;;10.43;3.47;;;6.80;99.90;;;;;;4997541;28;20959;-61
2024/01/23 04:31:05;;;;;;;7.57;2.93;;;6.80;99.90;;;;;;4999743;28;20492;-61
2024/01/23 04:33:33;;;;;;;9.10;3.00;;;6.80;99.90;;;;;;5001779;28;20464;-61
2024/01/23 04:36:01;;;;;;;9.73;2.80;;;6.80;99.90;;;;;;5001854;28;20596;-61
2024/01/23 04:38:29;;;;;;;12.70;3.50;;;6.80;99.90;;;;;;4999186;28;20472;-60
2024/01/23 04:40:57;;;;;;;9.93;2.73;;;6.80;99.90;;;;;;4996321;28;21092;-61
2024/01/23 04:43:26;;;;;;;9.03;2.80;;;6.80;99.90;;;;;;4997362;28;20563;-61
2024/01/23 04:45:54;;;;;;;10.93;3.00;;;6.90;99.90;;;;;;4999509;28;21206;-60
2024/01/23 04:48:22;;;;;;;17.50;3.20;;;6.80;99.90;;;;;;4991941;28;21103;-61
2024/01/23 04:50:50;;;;;;;11.07;3.60;;;6.90;99.90;;;;;;4996389;28;20518;-60
2024/01/23 04:53:19;;;;;;;12.30;3.33;;;6.90;99.90;;;;;;4998003;28;20492;-60
2024/01/23 04:55:46;;;;;;;9.13;3.83;;;6.90;99.90;;;;;;4998318;28;20556;-61
2024/01/23 04:58:14;;;;;;;11.00;4.20;;;6.90;99.90;;;;;;4997394;28;20542;-61
2024/01/23 05:00:44;;;;;;;8.17;3.40;;;6.90;99.90;;;;;;4999048;28;20593;-60
2024/01/23 05:03:15;;;;;;;9.37;3.33;;;6.90;99.90;;;;;;4998922;28;20961;-61
2024/01/23 05:05:44;;;;;;;9.83;3.77;;;6.90;99.90;;;;;;4996566;28;21040;-61
2024/01/23 05:08:12;;;;;;;14.30;3.40;;;6.90;99.90;;;;;;4994835;28;20475;-60
2024/01/23 05:10:40;;;;;;;10.97;3.77;;;6.90;99.90;;;;;;4994998;28;20535;-61
2024/01/23 05:13:08;;;;;;;11.10;3.30;;;6.90;99.90;;;;;;4991094;28;21373;-61
2024/01/23 05:15:36;;;;;;;12.80;3.70;;;6.90;99.90;;;;;;4993245;28;20500;-61
2024/01/23 05:18:07;;;;;;;12.37;3.37;;;6.90;99.90;;;;;;4996350;28;21012;-61
2024/01/23 05:20:36;;;;;;;16.23;3.80;;;6.80;99.90;;;;;;4998066;28;20479;-61
2024/01/23 05:23:05;;;;;;;11.93;3.63;;;6.80;99.90;;;;;;4995409;28;20934;-60
2024/01/23 05:25:33;;;;;;;9.83;2.80;;;6.90;99.90;;;;;;4997538;28;20472;-61
2024/01/23 05:28:01;;;;;;;17.03;3.53;;;6.80;99.90;;;;;;4995583;28;21033;-60
2024/01/23 05:30:29;;;;;;;8.90;3.17;;;6.90;99.90;;;;;;4986651;28;20499;-61
2024/01/23 05:32:57;;;;;;;10.73;3.40;;;6.80;99.90;;;;;;4991240;28;20897;-61
2024/01/23 05:35:27;;;;;;;9.60;3.40;;;6.80;99.90;;;;;;4997739;28;20496;-59
2024/01/23 05:37:55;;;;;;;12.77;3.63;;;6.90;99.90;;;;;;4986708;28;20478;-60
2024/01/23 05:40:23;;;;;;;8.67;3.30;;;6.90;99.90;;;;;;4994261;28;20488;-61
2024/01/23 05:42:51;;;;;;;10.33;3.07;;;6.90;99.90;;;;;;4994025;28;20846;-60
2024/01/23 05:45:19;;;;;;;10.23;4.30;;;6.80;99.90;;;;;;4993621;28;20860;-61
2024/01/23 05:47:47;;;;;;;9.00;4.40;;;6.80;99.90;;;;;;4997928;28;20480;-61
2024/01/23 05:50:15;;;;;;;13.70;4.37;;;6.80;99.90;;;;;;4996894;28;20484;-60
2024/01/23 05:52:44;;;;;;;7.87;3.17;;;6.80;99.90;;;;;;4997319;28;21358;-61
2024/01/23 05:55:12;;;;;;;10.10;3.93;;;6.80;99.90;;;;;;5000005;28;20516;-60
2024/01/23 05:57:40;;;;;;;12.07;3.43;;;6.80;99.90;;;;;;4996606;28;21061;-61
2024/01/23 06:00:13;;;;;;;11.40;3.33;;;6.80;99.90;;;;;;4993460;28;20564;-61
2024/01/23 06:02:41;;;;;;;17.13;3.70;;;6.80;99.90;;;;;;4991537;28;20468;-61
2024/01/23 06:05:09;;;;;;;10.57;3.50;;;6.80;99.90;;;;;;4997718;28;20992;-60
2024/01/23 06:07:41;;;;;;;10.67;3.77;;;6.80;99.90;;;;;;4995596;28;20623;-60
2024/01/23 06:10:11;;;;;;;20.37;4.23;;;6.80;99.90;;;;;;5000598;28;20479;-60
2024/01/23 06:12:39;;;;;;;14.37;3.93;;;6.80;99.90;;;;;;4996298;28;21161;-60
2024/01/23 06:15:08;;;;;;;12.70;3.43;;;6.70;99.90;;;;;;4996977;28;20488;-61
2024/01/23 06:17:36;;;;;;;11.73;4.17;;;6.70;99.90;;;;;;4997049;28;20472;-61
2024/01/23 06:20:07;;;;;;;13.50;3.43;;;6.70;99.90;;;;;;4995284;28;20504;-61
2024/01/23 06:22:35;;;;;;;12.20;3.80;;;6.70;99.90;;;;;;5000946;28;20483;-61
2024/01/23 06:25:04;;;;;;;12.37;3.73;;;6.60;99.90;;;;;;4998254;28;21148;-61
2024/01/23 06:27:33;;;;;;;16.57;4.20;;;6.70;99.90;;;;;;4995371;28;20487;-60
2024/01/23 06:30:02;;;;;;;19.30;5.27;;;6.70;99.90;;;;;;4988070;28;20503;-61
2024/01/23 06:32:32;;;;;;;14.83;4.10;;;6.70;99.90;;;;;;4987937;28;20506;-60
2024/01/23 06:35:01;;;;;;;11.70;3.70;;;6.70;99.90;;;;;;4994723;28;20491;-60
2024/01/23 06:37:29;;;;;;;14.10;3.60;;;6.70;99.90;;;;;;4994704;28;20571;-61
2024/01/23 06:39:57;;;;;;;17.43;4.10;;;6.70;99.90;;;;;;4993406;28;20546;-59
2024/01/23 06:42:25;;;;;;;14.10;4.67;;;6.70;99.90;;;;;;4994824;28;20546;-61
2024/01/23 06:44:54;;;;;;;11.37;4.00;;;6.70;99.90;;;;;;5000902;28;20550;-61
2024/01/23 06:47:23;;;;;;;17.53;4.03;;;6.70;99.90;;;;;;4998546;28;20815;-61
2024/01/23 06:49:52;;;;;;;13.50;3.93;;;6.70;99.90;;;;;;4993128;28;20500;-60
2024/01/23 06:52:20;;;;;;;15.77;4.30;;;6.80;99.90;;;;;;4997560;28;20491;-60
2024/01/23 06:54:48;;;;;;;16.37;3.60;;;6.80;99.90;;;;;;4994262;28;20555;-59
2024/01/23 06:57:16;;;;;;;17.50;4.80;;;6.80;99.90;;;;;;4989147;28;20503;-60
2024/01/23 06:59:44;;;;;;;13.47;5.10;;;6.90;99.90;;;;;;4997366;28;20583;-61
2024/01/23 07:02:13;;;;;;;8.67;3.40;;;6.90;99.90;;;;;;4997011;28;20483;-60
2024/01/23 07:04:41;;;;;;;20.87;4.90;;;6.90;99.90;;;;;;4995913;28;20559;-59
2024/01/23 07:07:10;;;;;;;11.90;3.33;;;6.90;99.90;;;;;;4996692;28;20468;-61
2024/01/23 07:09:38;;;;;;;13.87;3.80;;;7.00;99.90;;;;;;4999186;28;20607;-60
2024/01/23 07:12:07;;;;;;;14.90;5.30;;;7.00;99.90;;;;;;4997924;28;21181;-60
2024/01/23 07:14:35;;;;;;;17.30;4.20;;;7.00;99.90;;;;;;4993084;28;20477;-61
2024/01/23 07:17:03;;;;;;;10.13;3.53;;;7.00;99.90;;;;;;4997904;28;20783;-60
2024/01/23 07:19:32;;;;;;;16.57;4.67;;;7.00;99.90;;;;;;4999837;28;20478;-61
2024/01/23 07:22:01;;;;;;;19.10;4.77;;;7.00;99.90;;;;;;4998674;28;20571;-61
2024/01/23 07:24:29;;;;;;;17.07;4.20;;;7.00;99.90;;;;;;4994345;28;20491;-61
2024/01/23 07:26:57;;;;;;;15.33;4.40;;;7.10;99.90;;;;;;4999235;28;20958;-60
2024/01/23 07:29:25;;;;;;;16.70;4.83;;;7.10;99.90;;;;;;4999976;28;20504;-60
2024/01/23 07:31:53;;;;;;;16.63;4.10;;;7.10;99.90;;;;;;4998942;28;20487;-60
2024/01/23 07:34:21;;;;;;;22.37;4.57;;;7.10;99.90;;;;;;4998223;28;20596;-61
2024/01/23 07:36:51;;;;;;;16.80;4.30;;;7.10;99.90;;;;;;4995854;28;20551;-61
2024/01/23 07:39:19;;;;;;;19.03;4.27;;;7.10;99.90;;;;;;4994336;28;20464;-61
2024/01/23 07:41:47;;;;;;;16.90;5.80;;;7.10;99.90;;;;;;4996866;28;20476;-61
2024/01/23 07:44:15;;;;;;;15.50;4.40;;;7.20;99.90;;;;;;4994051;28;20607;-61
2024/01/23 07:46:43;;;;;;;15.70;5.00;;;7.20;99.90;;;;;;4998649;28;20555;-61
2024/01/23 07:49:11;;;;;;;17.37;3.73;;;7.30;99.90;;;;;;4999674;28;20477;-60
2024/01/23 07:51:46;;;;;;;19.00;4.60;;;7.30;99.90;;;;;;5000172;28;20495;-60
2024/01/23 07:54:15;;;;;;;18.00;5.50;;;7.30;99.90;;;;;;5001984;28;20492;-61
2024/01/23 07:56:44;;;;;;;18.30;4.10;;;7.30;99.90;;;;;;5001306;28;20552;-61
2024/01/23 07:59:12;;;;;;;16.70;5.10;;;7.30;99.90;;;;;;5001773;28;20554;-61
2024/01/23 08:01:40;;;;;;;16.80;4.70;;;7.30;99.90;;;;;;5000409;28;20577;-61
2024/01/23 08:04:08;;;;;;;19.43;3.97;;;7.30;99.90;;;;;;5003000;28;20464;-60
2024/01/23 08:06:36;;;;;;;18.40;5.50;;;7.30;99.90;;;;;;5002066;28;20468;-61
2024/01/23 08:09:04;;;;;;;14.70;5.47;;;7.30;99.90;;;;;;5001638;28;20488;-60
2024/01/23 08:11:34;;;;;;;22.33;5.13;;;7.40;99.90;;;;;;5001900;28;20591;-60
2024/01/23 08:14:03;;;;;;;20.40;5.70;;;7.40;99.90;;;;;;5002775;28;20533;-61
2024/01/23 08:16:31;;;;;;;14.90;4.60;;;7.40;99.90;;;;;;5001477;28;20530;-60
2024/01/23 08:19:02;;;;;;;13.27;5.33;;;7.40;99.90;;;;;;5003399;28;20535;-60
2024/01/23 08:21:30;;;;;;;19.43;5.47;;;7.40;99.90;;;;;;5001690;28;20479;-61
2024/01/23 08:23:58;;;;;;;19.37;6.50;;;7.40;99.90;;;;;;4999228;28;20534;-61
2024/01/23 08:26:26;;;;;;;20.13;5.33;;;7.40;99.90;;;;;;5000795;28;20484;-60
2024/01/23 08:29:00;;;;;;;15.20;4.70;;;7.40;99.90;;;;;;5002914;28;20480;-61
2024/01/23 08:31:29;;;;;;;18.13;5.30;;;7.40;99.90;;;;;;5003230;28;20590;-61
2024/01/23 08:33:57;;;;;;;16.60;4.03;;;7.40;99.90;;;;;;4997378;28;21127;-60
2024/01/23 08:36:27;;;;;;;20.40;5.03;;;7.40;99.90;;;;;;5001592;28;20826;-60
2024/01/23 08:38:55;;;;;;;14.40;4.10;;;7.40;99.90;;;;;;5001424;28;20850;-59
2024/01/23 08:41:23;;;;;;;15.90;4.30;;;7.50;99.90;;;;;;4998875;28;20673;-60
2024/01/23 08:43:51;;;;;;;21.07;6.43;;;7.50;99.90;;;;;;5000605;28;20556;-61
2024/01/23 08:46:22;;;;;;;15.93;5.10;;;7.50;99.90;;;;;;5001844;28;21082;-60
2024/01/23 08:48:50;;;;;;;21.83;5.30;;;7.50;99.90;;;;;;5003783;28;20462;-59
2024/01/23 08:51:18;;;;;;;20.80;5.20;;;7.50;99.90;;;;;;4998069;28;20575;-60
2024/01/23 08:53:47;;;;;;;20.03;4.33;;;7.50;99.90;;;;;;5001929;28;20527;-61
2024/01/23 08:56:18;;;;;;;21.30;4.70;;;7.50;99.90;;;;;;5002018;28;20815;-60
2024/01/23 08:58:47;;;;;;;23.90;5.43;;;7.50;99.90;;;;;;5001413;28;20496;-59
2024/01/23 09:01:15;;;;;;;15.50;4.30;;;7.50;99.90;;;;;;4997698;28;20939;-59
2024/01/23 09:03:44;;;;;;;14.90;4.67;;;7.60;99.90;;;;;;5000134;28;20593;-60
2024/01/23 09:06:13;;;;;;;11.83;5.10;;;7.60;99.90;;;;;;4999603;28;20526;-59
2024/01/23 09:08:42;;;;;;;14.90;6.07;;;7.60;99.90;;;;;;5000966;28;20480;-61
2024/01/23 09:11:10;;;;;;;18.10;5.57;;;7.60;99.90;;;;;;4996880;28;20587;-60
2024/01/23 09:13:39;;;;;;;24.77;5.60;;;7.70;99.90;;;;;;4998768;28;21036;-61
2024/01/23 09:16:07;;;;;;;14.83;4.80;;;7.70;99.90;;;;;;5000763;28;20528;-61
2024/01/23 09:18:37;;;;;;;21.43;5.43;;;7.70;99.90;;;;;;5002822;28;20509;-61
2024/01/23 09:21:08;;;;;;;24.73;5.83;;;7.70;99.90;;;;;;5000238;28;20507;-60
2024/01/23 09:23:38;;;;;;;14.13;4.23;;;7.70;99.90;;;;;;5003186;28;20468;-61
2024/01/23 09:26:06;;;;;;;19.20;4.87;;;7.80;99.90;;;;;;5000657;28;20559;-61
2024/01/23 09:28:34;;;;;;;19.10;5.13;;;7.80;99.90;;;;;;5000669;28;20488;-60
2024/01/23 09:31:02;;;;;;;20.67;5.47;;;7.80;99.90;;;;;;4997891;28;20496;-61
2024/01/23 09:33:31;;;;;;;12.80;4.60;;;7.90;99.90;;;;;;4993418;28;20472;-61
2024/01/23 09:35:59;;;;;;;17.03;4.50;;;7.90;99.90;;;;;;5000411;28;21054;-61
2024/01/23 09:38:28;;;;;;;16.13;4.50;;;7.90;99.90;;;;;;5001989;28;21047;-61
2024/01/23 09:40:56;;;;;;;19.57;5.00;;;7.80;99.90;;;;;;4998682;28;20514;-60
2024/01/23 09:43:27;;;;;;;17.23;5.00;;;7.90;99.90;;;;;;5000423;28;21063;-61
2024/01/23 09:45:57;;;;;;;14.17;5.70;;;7.90;99.90;;;;;;5001396;28;20460;-61
2024/01/23 09:48:26;;;;;;;14.90;5.20;;;7.90;99.90;;;;;;5001384;28;20527;-61
2024/01/23 09:50:56;;;;;;;22.27;6.60;;;7.80;99.90;;;;;;4999516;28;20857;-60
2024/01/23 09:53:26;;;;;;;20.47;5.97;;;7.80;99.90;;;;;;5001788;28;20897;-60
2024/01/23 09:55:55;;;;;;;16.90;5.10;;;7.90;99.90;;;;;;5001444;28;20507;-61
2024/01/23 09:58:23;;;;;;;15.97;5.30;;;7.80;99.90;;;;;;5002538;28;20503;-61
2024/01/23 10:00:53;;;;;;;15.33;5.57;;;7.80;99.90;;;;;;5001328;28;21012;-61
2024/01/23 10:03:22;;;;;;;16.93;5.00;;;7.90;99.90;;;;;;5000204;28;20471;-61
2024/01/23 10:05:50;;;;;;;17.70;4.73;;;7.90;99.90;;;;;;4999467;28;20468;-61
2024/01/23 10:08:18;;;;;;;20.57;5.37;;;7.90;99.90;;;;;;5001099;28;20472;-60
2024/01/23 10:10:46;;;;;;;19.43;5.37;;;7.90;99.90;;;;;;4999000;28;20496;-60
2024/01/23 10:13:15;;;;;;;17.47;6.23;;;7.90;99.90;;;;;;4999992;28;20547;-61
2024/01/23 10:15:43;;;;;;;18.00;5.77;;;8.00;99.90;;;;;;4998962;28;20535;-61
2024/01/23 10:18:12;;;;;;;23.40;4.80;;;8.00;99.90;;;;;;4999342;28;20495;-60
2024/01/23 10:20:40;;;;;;;16.53;4.90;;;8.00;99.90;;;;;;5001024;28;20493;-60
2024/01/23 10:23:08;;;;;;;19.97;6.63;;;8.10;99.90;;;;;;5000016;28;20728;-60
2024/01/23 10:25:39;;;;;;;18.37;5.13;;;8.10;99.90;;;;;;4997860;28;20483;-61
2024/01/23 10:28:09;;;;;;;15.23;5.67;;;8.20;99.90;;;;;;4999590;28;20469;-61
2024/01/23 10:30:40;;;;;;;20.30;5.43;;;8.20;99.90;;;;;;4996341;28;21123;-61
2024/01/23 10:33:10;;;;;;;23.80;7.47;;;8.20;99.90;;;;;;4991010;28;20530;-60
2024/01/23 10:35:38;;;;;;;14.97;4.43;;;8.20;99.90;;;;;;5000761;28;20495;-61
2024/01/23 10:38:06;;;;;;;21.87;4.63;;;8.20;99.90;;;;;;4998159;28;20837;-61
2024/01/23 10:40:34;;;;;;;23.60;5.47;;;8.30;99.90;;;;;;4995730;28;20487;-61
2024/01/23 10:43:04;;;;;;;17.73;5.30;;;8.30;99.90;;;;;;4998147;28;20784;-61
2024/01/23 10:45:32;;;;;;;21.77;5.37;;;8.30;99.90;;;;;;5000455;28;20473;-61
2024/01/23 10:48:02;;;;;;;14.60;5.17;;;8.40;99.90;;;;;;4998010;28;20483;-61
2024/01/23 10:50:30;;;;;;;16.60;5.23;;;8.40;99.90;;;;;;4996168;28;20493;-61
2024/01/23 10:53:04;;;;;;;19.20;4.50;;;8.40;99.90;;;;;;4999113;28;20980;-61
2024/01/23 10:55:38;;;;;;;20.23;4.53;;;8.40;99.90;;;;;;4999501;28;20519;-61
2024/01/23 10:58:13;;;;;;;19.23;5.57;;;8.30;99.90;;;;;;4997843;28;20472;-61
2024/01/23 11:00:43;;;;;;;18.20;4.97;;;8.40;99.90;;;;;;4996931;28;20566;-60
2024/01/23 11:03:14;;;;;;;21.03;4.80;;;8.40;99.90;;;;;;4995930;28;21114;-61
2024/01/23 11:05:48;;;;;;;15.87;4.80;;;8.30;99.90;;;;;;5000560;28;20496;-61
2024/01/23 11:08:22;;;;;;;16.63;4.43;;;8.30;99.90;;;;;;4997961;28;20468;-61
2024/01/23 11:10:56;;;;;;;16.23;4.43;;;8.20;99.90;;;;;;4999235;28;20475;-61
2024/01/23 11:13:31;;;;;;;21.00;5.57;;;8.20;99.90;;;;;;4997821;28;20468;-61
2024/01/23 11:16:04;;;;;;;25.83;5.73;;;8.20;99.90;;;;;;4998763;28;20566;-61
2024/01/23 11:18:34;;;;;;;22.07;5.97;;;8.20;99.90;;;;;;4998466;28;20483;-60
2024/01/23 11:21:14;;;;;;;21.80;5.40;;;8.10;99.90;;;;;;4999487;28;20573;-59
2024/01/23 11:23:44;;;;;;;16.03;5.40;;;8.10;99.90;;;;;;4999187;28;20482;-59
2024/01/23 11:26:16;;;;;;;22.60;6.03;;;8.10;99.90;;;;;;4997278;28;20467;-61
2024/01/23 11:28:46;;;;;;;20.97;5.50;;;8.10;99.90;;;;;;4998646;28;20491;-61
2024/01/23 11:31:17;;;;;;;17.33;4.57;;;8.20;99.90;;;;;;4993827;28;20477;-61
2024/01/23 11:33:47;;;;;;;22.03;5.03;;;8.20;99.90;;;;;;4996836;28;20487;-61
2024/01/23 11:36:23;;;;;;;17.03;5.33;;;8.30;99.90;;;;;;4998824;28;21044;-61
2024/01/23 11:38:53;;;;;;;17.33;5.00;;;8.50;99.90;;;;;;4995684;28;20857;-61
2024/01/23 11:41:23;;;;;;;16.33;5.50;;;8.70;99.90;;;;;;4996307;28;20994;-61
2024/01/23 11:43:54;;;;;;;17.53;4.57;;;8.80;99.90;;;;;;4996419;28;20491;-61
2024/01/23 11:46:23;;;;;;;13.50;4.53;;;8.80;99.90;;;;;;4999427;28;20563;-61
2024/01/23 11:48:54;;;;;;;18.40;6.03;;;8.70;99.90;;;;;;4995722;28;20479;-60
2024/01/23 11:51:24;;;;;;;18.53;4.67;;;8.70;99.90;;;;;;4997015;28;20576;-61
2024/01/23 11:53:57;;;;;;;16.70;4.87;;;8.60;99.90;;;;;;4996712;28;20465;-60
2024/01/23 11:56:27;;;;;;;21.63;5.03;;;8.70;99.90;;;;;;4999494;28;20504;-61
2024/01/23 11:58:58;;;;;;;16.30;4.37;;;8.70;99.90;;;;;;4998307;28;20520;-60
2024/01/23 12:01:27;;;;;;;16.37;4.73;;;8.70;99.90;;;;;;4997972;28;21015;-61
2024/01/23 12:03:58;;;;;;;17.77;5.53;;;8.70;99.90;;;;;;4991091;28;20481;-61
2024/01/23 12:06:26;;;;;;;20.33;4.53;;;8.70;99.90;;;;;;4997761;28;20855;-60
2024/01/23 12:08:54;;;;;;;18.57;5.57;;;8.80;99.90;;;;;;4995871;28;20473;-61
2024/01/23 12:11:23;;;;;;;16.93;4.60;;;8.80;99.90;;;;;;4998097;28;21511;-61
2024/01/23 12:13:51;;;;;;;16.97;5.13;;;8.80;99.90;;;;;;4991601;28;20483;-61
2024/01/23 12:16:20;;;;;;;14.00;4.63;;;8.80;99.90;;;;;;5000445;28;20502;-61
2024/01/23 12:18:57;;;;;;;17.40;5.57;;;8.80;99.90;;;;;;4997964;28;20474;-60
2024/01/23 12:21:27;;;;;;;22.37;7.03;;;8.70;99.90;;;;;;4994739;28;20527;-61
2024/01/23 12:23:56;;;;;;;22.43;4.80;;;8.70;99.90;;;;;;4987601;28;20486;-60
2024/01/23 12:26:27;;;;;;;20.03;6.30;;;8.70;99.90;;;;;;5000717;28;21031;-61
2024/01/23 12:28:55;;;;;;;18.27;4.90;;;8.70;99.90;;;;;;4997702;28;20503;-61
2024/01/23 12:31:26;;;;;;;14.47;4.17;;;8.80;99.90;;;;;;4997296;28;20480;-61
2024/01/23 12:33:54;;;;;;;14.30;5.30;;;8.90;99.90;;;;;;4998423;28;20535;-61
2024/01/23 12:36:25;;;;;;;15.23;5.70;;;8.90;99.90;;;;;;4997754;28;21032;-59
2024/01/23 12:38:53;;;;;;;13.90;4.17;;;8.90;99.90;;;;;;4998276;28;20479;-61
2024/01/23 12:41:21;;;;;;;15.73;4.60;;;8.80;99.90;;;;;;5001418;28;20502;-61
2024/01/23 12:43:49;;;;;;;15.67;5.20;;;8.80;99.90;;;;;;4998489;28;20478;-60
2024/01/23 12:46:17;;;;;;;19.70;4.57;;;8.70;99.90;;;;;;4998272;28;20969;-61
2024/01/23 12:48:45;;;;;;;20.70;5.67;;;8.70;99.90;;;;;;5001974;28;20567;-61
2024/01/23 12:51:16;;;;;;;14.60;5.23;;;8.60;99.90;;;;;;4990902;28;20500;-61
2024/01/23 12:53:46;;;;;;;15.93;4.97;;;8.60;99.90;;;;;;4999186;28;20555;-61
2024/01/23 12:56:14;;;;;;;20.50;4.87;;;8.60;99.90;;;;;;5002860;28;20551;-60
2024/01/23 12:58:42;;;;;;;21.60;5.80;;;8.50;99.90;;;;;;4998254;28;20554;-60